Time,TemperatureF,DewpointF,PressureIn,WindDirection,WindDirectionDegrees,WindSpeedMPH,WindSpeedGustMPH,Humidity,HourlyPrecipIn,Conditions,Clouds,dailyrainin,SoftwareType,DateUTC
2013-06-15 00:00:00,61.0,59.0,29.98,NE,53,0.0,0.0,94,0.00,,,0.00,weatherlink.com 1.10,2013-06-15 04:00:00,
2013-06-15 00:15:00,60.5,59.0,29.98,NE,53,0.0,0.0,94,0.00,,,0.00,weatherlink.com 1.10,2013-06-15 04:15:00,
2013-06-15 00:30:00,60.7,59.0,29.99,NE,53,0.0,0.0,94,0.00,,,0.00,weatherlink.com 1.10,2013-06-15 04:30:00,
2013-06-15 00:45:00,60.7,59.0,29.99,NE,53,0.0,0.0,94,0.00,,,0.00,weatherlink.com 1.10,2013-06-15 04:45:00,
2013-06-15 01:00:00,60.7,59.0,30.00,NE,53,0.0,0.0,94,0.00,,,0.00,weatherlink.com 1.10,2013-06-15 05:00:00,
2013-06-15 01:15:00,60.7,59.0,30.00,NE,53,0.0,0.0,94,0.00,,,0.00,weatherlink.com 1.10,2013-06-15 05:15:00,
2013-06-15 01:30:00,60.7,59.0,30.00,NE,53,0.0,0.0,94,0.00,,,0.00,weatherlink.com 1.10,2013-06-15 05:30:00,
2013-06-15 01:46:00,60.8,59.0,30.00,NE,53,0.0,0.0,94,0.00,,,0.00,weatherlink.com 1.10,2013-06-15 05:46:00,
2013-06-15 02:01:00,60.8,59.0,30.00,NE,53,0.0,0.0,94,0.00,,,0.00,weatherlink.com 1.10,2013-06-15 06:01:00,
2013-06-15 02:16:00,60.7,59.0,30.00,NE,53,0.0,0.0,94,0.00,,,0.00,weatherlink.com 1.10,2013-06-15 06:16:00,
2013-06-15 02:32:00,60.4,58.0,30.01,NE,53,0.0,0.0,93,0.00,,,0.00,weatherlink.com 1.10,2013-06-15 06:32:00,
2013-06-15 02:46:00,60.1,58.0,30.01,NE,53,0.0,0.0,93,0.00,,,0.00,weatherlink.com 1.10,2013-06-15 06:46:00,
2013-06-15 03:01:00,60.0,58.0,30.01,NE,53,0.0,0.0,93,0.00,,,0.00,weatherlink.com 1.10,2013-06-15 07:01:00,
2013-06-15 03:16:00,59.8,58.0,30.01,NE,53,0.0,0.0,94,0.00,,,0.00,weatherlink.com 1.10,2013-06-15 07:16:00,
2013-06-15 03:31:00,59.7,58.0,30.01,NE,53,0.0,0.0,94,0.00,,,0.00,weatherlink.com 1.10,2013-06-15 07:31:00,
2013-06-15 03:46:00,59.6,58.0,30.01,NE,53,0.0,0.0,94,0.00,,,0.00,weatherlink.com 1.10,2013-06-15 07:46:00,
2013-06-15 04:01:00,59.5,58.0,30.00,NE,53,0.0,0.0,94,0.00,,,0.00,weatherlink.com 1.10,2013-06-15 08:01:00,
2013-06-15 04:16:00,59.4,58.0,30.00,NE,53,0.0,0.0,94,0.00,,,0.00,weatherlink.com 1.10,2013-06-15 08:16:00,
2013-06-15 04:31:00,59.4,58.0,30.00,NE,49,0.0,2.0,94,0.00,,,0.00,weatherlink.com 1.10,2013-06-15 08:31:00,
2013-06-15 04:46:00,59.3,58.0,30.00,NE,49,0.0,1.0,94,0.00,,,0.00,weatherlink.com 1.10,2013-06-15 08:46:00,
2013-06-15 05:01:00,59.2,58.0,30.00,NE,49,0.0,2.0,94,0.00,,,0.00,weatherlink.com 1.10,2013-06-15 09:01:00,
2013-06-15 05:16:00,59.1,57.0,30.00,NE,55,0.0,1.0,94,0.00,,,0.00,weatherlink.com 1.10,2013-06-15 09:16:00,
2013-06-15 05:31:00,59.1,58.0,30.01,SW,220,0.0,2.0,95,0.00,,,0.00,weatherlink.com 1.10,2013-06-15 09:31:00,
2013-06-15 05:46:00,59.0,57.0,30.02,SW,221,0.0,0.0,94,0.00,,,0.00,weatherlink.com 1.10,2013-06-15 09:46:00,
2013-06-15 06:01:00,58.8,57.0,30.03,WSW,240,0.0,3.0,94,0.00,,,0.00,weatherlink.com 1.10,2013-06-15 10:01:00,
2013-06-15 06:16:00,58.6,57.0,30.04,WSW,240,0.0,0.0,94,0.00,,,0.00,weatherlink.com 1.10,2013-06-15 10:16:00,
2013-06-15 06:31:00,58.5,57.0,30.04,WSW,240,0.0,0.0,95,0.00,,,0.00,weatherlink.com 1.10,2013-06-15 10:31:00,
2013-06-15 06:46:00,58.7,57.0,30.05,WSW,238,0.0,3.0,95,0.00,,,0.00,weatherlink.com 1.10,2013-06-15 10:46:00,
2013-06-15 07:01:00,58.7,57.0,30.06,WSW,238,0.0,3.0,95,0.00,,,0.00,weatherlink.com 1.10,2013-06-15 11:01:00,
2013-06-15 07:16:00,59.0,58.0,30.07,WSW,238,0.0,1.0,95,0.00,,,0.00,weatherlink.com 1.10,2013-06-15 11:16:00,
2013-06-15 07:31:00,59.3,58.0,30.07,WSW,238,0.0,0.0,96,0.00,,,0.00,weatherlink.com 1.10,2013-06-15 11:31:00,
2013-06-15 07:46:00,59.8,59.0,30.07,WSW,238,0.0,0.0,96,0.00,,,0.00,weatherlink.com 1.10,2013-06-15 11:46:00,
2013-06-15 08:01:00,60.3,59.0,30.07,WSW,238,0.0,0.0,96,0.00,,,0.00,weatherlink.com 1.10,2013-06-15 12:01:00,
2013-06-15 08:16:00,61.1,60.0,30.07,WSW,238,0.0,0.0,97,0.00,,,0.00,weatherlink.com 1.10,2013-06-15 12:16:00,
2013-06-15 08:31:00,61.8,61.0,30.08,WSW,238,0.0,0.0,97,0.00,,,0.00,weatherlink.com 1.10,2013-06-15 12:31:00,
2013-06-15 08:46:00,62.3,62.0,30.08,WSW,238,0.0,0.0,97,0.00,,,0.00,weatherlink.com 1.10,2013-06-15 12:46:00,
2013-06-15 09:01:00,63.1,62.0,30.09,WSW,238,0.0,0.0,96,0.00,,,0.00,weatherlink.com 1.10,2013-06-15 13:01:00,
2013-06-15 09:16:00,63.9,62.0,30.08,WSW,238,0.0,0.0,94,0.00,,,0.00,weatherlink.com 1.10,2013-06-15 13:16:00,
2013-06-15 09:31:00,65.0,62.0,30.09,NW,307,0.0,0.0,89,0.00,,,0.00,weatherlink.com 1.10,2013-06-15 13:31:00,
2013-06-15 09:46:00,66.3,62.0,30.09,NW,316,0.0,0.0,86,0.00,,,0.00,weatherlink.com 1.10,2013-06-15 13:46:00,
2013-06-15 10:01:00,67.6,63.0,30.09,NNW,340,0.0,0.0,84,0.00,,,0.00,weatherlink.com 1.10,2013-06-15 14:01:00,
2013-06-15 10:16:00,68.5,63.0,30.09,NNE,12,0.0,3.0,81,0.00,,,0.00,weatherlink.com 1.10,2013-06-15 14:16:00,
2013-06-15 10:32:00,69.3,63.0,30.08,SW,232,2.0,2.0,79,0.00,,,0.00,weatherlink.com 1.10,2013-06-15 14:32:00,
2013-06-15 10:47:00,70.2,63.0,30.08,SW,235,0.0,6.0,78,0.00,,,0.00,weatherlink.com 1.10,2013-06-15 14:47:00,
2013-06-15 11:02:00,72.4,63.0,30.08,WSW,238,0.0,5.0,72,0.00,,,0.00,weatherlink.com 1.10,2013-06-15 15:02:00,
2013-06-15 11:17:00,74.4,64.0,30.08,SW,229,0.0,4.0,69,0.00,,,0.00,weatherlink.com 1.10,2013-06-15 15:17:00,
2013-06-15 11:32:00,75.9,62.0,30.07,NW,315,2.0,5.0,62,0.00,,,0.00,weatherlink.com 1.10,2013-06-15 15:32:00,
2013-06-15 11:47:00,75.9,65.0,30.07,SW,227,2.0,7.0,69,0.00,,,0.00,weatherlink.com 1.10,2013-06-15 15:47:00,
2013-06-15 12:02:00,76.5,63.0,30.07,West,267,0.0,4.0,64,0.00,,,0.00,weatherlink.com 1.10,2013-06-15 16:02:00,
2013-06-15 12:17:00,78.1,62.0,30.07,West,265,2.0,8.0,59,0.00,,,0.00,weatherlink.com 1.10,2013-06-15 16:17:00,
2013-06-15 12:32:00,77.5,64.0,30.07,SW,221,1.0,6.0,63,0.00,,,0.00,weatherlink.com 1.10,2013-06-15 16:32:00,
2013-06-15 12:47:00,79.3,65.0,30.06,WSW,242,1.0,1.0,62,0.00,,,0.00,weatherlink.com 1.10,2013-06-15 16:47:00,
2013-06-15 13:02:00,80.7,64.0,30.06,WNW,299,0.0,6.0,58,0.00,,,0.00,weatherlink.com 1.10,2013-06-15 17:02:00,
2013-06-15 13:17:00,80.3,62.0,30.05,West,263,3.0,6.0,54,0.00,,,0.00,weatherlink.com 1.10,2013-06-15 17:17:00,
2013-06-15 13:32:00,81.0,63.0,30.05,WSW,256,0.0,7.0,55,0.00,,,0.00,weatherlink.com 1.10,2013-06-15 17:32:00,
2013-06-15 13:47:00,79.9,64.0,30.05,WNW,283,1.0,6.0,58,0.00,,,0.00,weatherlink.com 1.10,2013-06-15 17:47:00,
2013-06-15 14:02:00,78.8,63.0,30.04,West,270,0.0,3.0,59,0.00,,,0.00,weatherlink.com 1.10,2013-06-15 18:02:00,
2013-06-15 14:17:00,77.7,63.0,30.04,WNW,291,0.0,5.0,61,0.00,,,0.00,weatherlink.com 1.10,2013-06-15 18:17:00,
2013-06-15 14:32:00,80.1,63.0,30.04,West,259,1.0,5.0,56,0.00,,,0.00,weatherlink.com 1.10,2013-06-15 18:32:00,
2013-06-15 14:47:00,77.8,64.0,30.04,West,273,0.0,4.0,62,0.00,,,0.00,weatherlink.com 1.10,2013-06-15 18:47:00,
2013-06-15 15:02:00,77.9,62.0,30.03,West,273,0.0,4.0,58,0.00,,,0.00,weatherlink.com 1.10,2013-06-15 19:02:00,
2013-06-15 15:17:00,77.3,62.0,30.03,WSW,238,0.0,4.0,59,0.00,,,0.00,weatherlink.com 1.10,2013-06-15 19:17:00,
2013-06-15 15:32:00,75.9,63.0,30.03,SW,221,0.0,1.0,65,0.00,,,0.00,weatherlink.com 1.10,2013-06-15 19:32:00,
2013-06-15 15:47:00,77.1,64.0,30.03,West,278,1.0,5.0,64,0.00,,,0.00,weatherlink.com 1.10,2013-06-15 19:47:00,
2013-06-15 16:02:00,77.1,63.0,30.03,West,265,0.0,4.0,62,0.00,,,0.00,weatherlink.com 1.10,2013-06-15 20:02:00,
2013-06-15 16:17:00,77.4,63.0,30.03,SW,232,1.0,5.0,61,0.00,,,0.00,weatherlink.com 1.10,2013-06-15 20:17:00,
2013-06-15 16:32:00,78.7,65.0,30.03,SSW,208,1.0,5.0,62,0.00,,,0.00,weatherlink.com 1.10,2013-06-15 20:32:00,
2013-06-15 16:47:00,76.9,64.0,30.02,SW,225,0.0,5.0,65,0.00,,,0.00,weatherlink.com 1.10,2013-06-15 20:47:00,
2013-06-15 17:02:00,77.8,66.0,30.02,West,260,0.0,2.0,68,0.00,,,0.00,weatherlink.com 1.10,2013-06-15 21:02:00,
2013-06-15 17:17:00,77.1,66.0,30.01,WNW,292,2.0,3.0,69,0.00,,,0.00,weatherlink.com 1.10,2013-06-15 21:17:00,
2013-06-15 17:32:00,78.4,64.0,30.01,SW,229,0.0,2.0,61,0.00,,,0.00,weatherlink.com 1.10,2013-06-15 21:32:00,
2013-06-15 17:47:00,79.6,63.0,30.01,SW,231,3.0,3.0,57,0.00,,,0.00,weatherlink.com 1.10,2013-06-15 21:47:00,
2013-06-15 18:02:00,79.1,63.0,30.01,SW,229,0.0,4.0,59,0.00,,,0.00,weatherlink.com 1.10,2013-06-15 22:02:00,
2013-06-15 18:17:00,78.2,65.0,30.01,WSW,238,0.0,5.0,63,0.00,,,0.00,weatherlink.com 1.10,2013-06-15 22:17:00,
2013-06-15 18:32:00,76.1,65.0,30.01,WSW,244,0.0,3.0,69,0.00,,,0.00,weatherlink.com 1.10,2013-06-15 22:32:00,
2013-06-15 18:47:00,75.5,65.0,30.01,SW,221,1.0,3.0,71,0.00,,,0.00,weatherlink.com 1.10,2013-06-15 22:47:00,
2013-06-15 19:02:00,74.9,66.0,30.01,SE,146,0.0,4.0,73,0.00,,,0.00,weatherlink.com 1.10,2013-06-15 23:02:00,
2013-06-15 19:17:00,74.4,64.0,30.01,SSE,164,0.0,2.0,71,0.00,,,0.00,weatherlink.com 1.10,2013-06-15 23:17:00,
2013-06-15 19:32:00,74.0,65.0,30.01,SSE,163,0.0,1.0,74,0.00,,,0.00,weatherlink.com 1.10,2013-06-15 23:32:00,
2013-06-15 19:47:00,73.6,65.0,30.01,SSE,164,0.0,0.0,74,0.00,,,0.00,weatherlink.com 1.10,2013-06-15 23:47:00,
2013-06-15 20:02:00,72.8,64.0,30.01,SSE,164,0.0,0.0,75,0.00,,,0.00,weatherlink.com 1.10,2013-06-16 00:02:00,
2013-06-15 20:17:00,72.1,66.0,30.01,SSE,164,0.0,0.0,80,0.00,,,0.00,weatherlink.com 1.10,2013-06-16 00:17:00,
2013-06-15 20:32:00,71.4,65.0,30.02,SSE,163,0.0,0.0,81,0.00,,,0.00,weatherlink.com 1.10,2013-06-16 00:32:00,
2013-06-15 20:47:00,70.7,65.0,30.01,SSE,163,0.0,1.0,83,0.00,,,0.00,weatherlink.com 1.10,2013-06-16 00:47:00,
2013-06-15 21:02:00,70.0,65.0,30.01,SSE,163,0.0,1.0,85,0.00,,,0.00,weatherlink.com 1.10,2013-06-16 01:02:00,
2013-06-15 21:17:00,69.3,64.0,30.02,SSE,163,0.0,1.0,84,0.00,,,0.00,weatherlink.com 1.10,2013-06-16 01:17:00,
2013-06-15 21:32:00,68.7,64.0,30.02,SSE,163,0.0,2.0,86,0.00,,,0.00,weatherlink.com 1.10,2013-06-16 01:32:00,
2013-06-15 21:47:00,68.1,65.0,30.02,SSE,163,0.0,1.0,88,0.00,,,0.00,weatherlink.com 1.10,2013-06-16 01:47:00,
2013-06-15 22:02:00,67.5,64.0,30.02,SSE,166,0.0,1.0,89,0.00,,,0.00,weatherlink.com 1.10,2013-06-16 02:02:00,
2013-06-15 22:17:00,67.2,64.0,30.02,SSE,166,0.0,1.0,90,0.00,,,0.00,weatherlink.com 1.10,2013-06-16 02:17:00,
2013-06-15 22:32:00,66.7,64.0,30.02,SSE,166,0.0,1.0,90,0.00,,,0.00,weatherlink.com 1.10,2013-06-16 02:32:00,
2013-06-15 22:47:00,66.4,64.0,30.02,SSE,166,0.0,1.0,91,0.00,,,0.00,weatherlink.com 1.10,2013-06-16 02:47:00,
2013-06-15 23:02:00,65.9,63.0,30.02,South,173,0.0,2.0,91,0.00,,,0.00,weatherlink.com 1.10,2013-06-16 03:02:00,
2013-06-15 23:17:00,65.4,63.0,30.02,South,173,0.0,0.0,91,0.00,,,0.00,weatherlink.com 1.10,2013-06-16 03:17:00,
2013-06-15 23:32:00,65.4,63.0,30.03,South,173,0.0,0.0,92,0.00,,,0.00,weatherlink.com 1.10,2013-06-16 03:32:00,
2013-06-15 23:47:00,65.2,63.0,30.03,South,178,0.0,1.0,91,0.00,,,0.00,weatherlink.com 1.10,2013-06-16 03:47:00,